Southaven, MS

8:56 AM CDT en Noviembre 01, 2014 (GMT -0500)
West Memphis Municipal | Change Station
CLOSE
Current Station
Aeropuerto
Location: West Memphis,
Altura: 213 ft
Estaciones meteorológicas cercanas
Aviso en curso: Freeze Warning

Alt 213 ft 35.14 °N, 90.23 °W | Updated 3 minutes ago

Despejado
Despejado
37 ° F
Sensación térmica 30 ° F
N
10
Viento Variable Viento desde Norte

Hoy
Alta -- | Baja -- ° F
--% Posibilidad de precipitaciones
Ayer
Alta -- | Baja -- ° F
Precip. -- pul
7:20 AM 6:05 PM
Gibosa creciente, 66% visible
Presión 30.43 pul
Visibilidad 10.0 Millas
Nubes Despejado
Vientos helados 30 ° F
Punto de rocío 26 ° F
Humedad 65%
Precipitaciones 0.00 pul
Espesor de la nieve No disponible.
UV 1 de una escala de 12
Polen .40 de una escala de 12
Calidad del aire No disponible.
Flu Activity No disponible.
METAR KAWM 011353Z AUTO 36009KT 10SM CLR 03/M03 A3043 RMK AO2 SLP305 T00281033 $

More Conditions Fewer Conditions

Presión 30.43 pul
Visibilidad 10.0 Millas
Nubes Despejado
Vientos helados 30 ° F
Punto de rocío 26 ° F
Humedad 65%
Precipitaciones 0.00 pul
Espesor de la nieve No disponible.
UV 1 de una escala de 12
Polen .40 de una escala de 12
Calidad del aire No disponible.
Flu Activity No disponible.
METAR KAWM 011353Z AUTO 36009KT 10SM CLR 03/M03 A3043 RMK AO2 SLP305 T00281033 $

More Conditions Fewer Conditions

10-Day Weather Forecast

Almanac

Astronomía

Nov. 01, 2014 Salida Puesta
Hora real
Crepúsculo civil
Crepúsculo náutico
Crepúsculo astronómico
Luna
Horas de luz
Horas de luz
Tomorrow will be .
, % of the Moon is Illuminated

Extremos de hoy

Máximos del estado Bajos del estado

Community

WunderPhotos

Upload Photos

1,766,937 ¡fotos cargadas!

WunderBlogs® & News

Nearby

Calidad del aire

  Calidad del aire Índice AQ Contaminante
Not available.

Grosos de nieve

Estación Profundido Altura

Actividad de terremotos

Ciudad Distance Mag. Tiempo y dato
Magnitud mínima muestra es 2,5.

Temperaturas de aguas costeras

Lugar Temperatura

Estaciones meteorológicas cercanas